sensor_id;sensor_type;location;lat;lon;timestamp;temperature;humidity
20422;DHT22;10370;53.102;18.034;2023-10-31T00:04:18;11.50;99.90
20422;DHT22;10370;53.102;18.034;2023-10-31T00:09:41;11.60;99.90
20422;DHT22;10370;53.102;18.034;2023-10-31T00:15:06;11.60;99.90
20422;DHT22;10370;53.102;18.034;2023-10-31T00:20:28;11.60;99.90
20422;DHT22;10370;53.102;18.034;2023-10-31T00:25:51;11.60;99.90
20422;DHT22;10370;53.102;18.034;2023-10-31T00:31:14;11.70;99.90
20422;DHT22;10370;53.102;18.034;2023-10-31T00:36:50;11.80;99.90
20422;DHT22;10370;53.102;18.034;2023-10-31T00:42:13;11.90;99.90
20422;DHT22;10370;53.102;18.034;2023-10-31T00:47:35;11.90;99.90
20422;DHT22;10370;53.102;18.034;2023-10-31T00:52:58;11.90;99.90
20422;DHT22;10370;53.102;18.034;2023-10-31T00:58:23;12.00;99.90
20422;DHT22;10370;53.102;18.034;2023-10-31T01:03:46;12.00;99.90
20422;DHT22;10370;53.102;18.034;2023-10-31T01:09:09;12.10;99.90
20422;DHT22;10370;53.102;18.034;2023-10-31T01:14:34;12.00;99.90
20422;DHT22;10370;53.102;18.034;2023-10-31T01:19:57;12.00;99.90
20422;DHT22;10370;53.102;18.034;2023-10-31T01:25:23;12.00;99.90
20422;DHT22;10370;53.102;18.034;2023-10-31T01:30:48;12.00;99.90
20422;DHT22;10370;53.102;18.034;2023-10-31T01:36:10;12.00;99.90
20422;DHT22;10370;53.102;18.034;2023-10-31T01:41:40;12.10;99.90
20422;DHT22;10370;53.102;18.034;2023-10-31T01:47:05;12.10;99.90
20422;DHT22;10370;53.102;18.034;2023-10-31T01:52:28;12.10;99.90
20422;DHT22;10370;53.102;18.034;2023-10-31T01:57:51;12.20;99.90
20422;DHT22;10370;53.102;18.034;2023-10-31T02:03:14;12.20;99.90
20422;DHT22;10370;53.102;18.034;2023-10-31T02:08:37;12.20;99.90
20422;DHT22;10370;53.102;18.034;2023-10-31T02:14:01;12.30;99.90
20422;DHT22;10370;53.102;18.034;2023-10-31T02:19:38;12.30;99.90
20422;DHT22;10370;53.102;18.034;2023-10-31T02:25:27;12.40;99.90
20422;DHT22;10370;53.102;18.034;2023-10-31T02:30:50;12.30;99.90
20422;DHT22;10370;53.102;18.034;2023-10-31T02:36:14;12.30;99.90
20422;DHT22;10370;53.102;18.034;2023-10-31T02:41:36;12.40;99.90
20422;DHT22;10370;53.102;18.034;2023-10-31T02:46:59;12.40;99.90
20422;DHT22;10370;53.102;18.034;2023-10-31T02:52:21;12.50;99.90
20422;DHT22;10370;53.102;18.034;2023-10-31T02:57:44;12.50;99.90
20422;DHT22;10370;53.102;18.034;2023-10-31T03:03:09;12.50;99.90
20422;DHT22;10370;53.102;18.034;2023-10-31T03:08:35;12.60;99.90
20422;DHT22;10370;53.102;18.034;2023-10-31T03:14:02;12.60;99.90
20422;DHT22;10370;53.102;18.034;2023-10-31T03:19:24;12.60;99.90
20422;DHT22;10370;53.102;18.034;2023-10-31T03:24:47;12.70;99.90
20422;DHT22;10370;53.102;18.034;2023-10-31T03:30:10;12.70;99.90
20422;DHT22;10370;53.102;18.034;2023-10-31T03:35:43;12.70;99.90
20422;DHT22;10370;53.102;18.034;2023-10-31T03:41:06;12.70;99.90
20422;DHT22;10370;53.102;18.034;2023-10-31T03:46:29;12.70;99.90
20422;DHT22;10370;53.102;18.034;2023-10-31T03:51:51;12.80;99.90
20422;DHT22;10370;53.102;18.034;2023-10-31T03:57:14;12.80;99.90
20422;DHT22;10370;53.102;18.034;2023-10-31T04:02:38;12.80;99.90
20422;DHT22;10370;53.102;18.034;2023-10-31T04:08:03;12.70;99.90
20422;DHT22;10370;53.102;18.034;2023-10-31T04:13:26;12.70;99.90
20422;DHT22;10370;53.102;18.034;2023-10-31T04:18:48;12.70;99.90
20422;DHT22;10370;53.102;18.034;2023-10-31T04:24:28;12.80;99.90
20422;DHT22;10370;53.102;18.034;2023-10-31T04:29:54;12.80;99.90
20422;DHT22;10370;53.102;18.034;2023-10-31T04:35:16;12.70;99.90
20422;DHT22;10370;53.102;18.034;2023-10-31T04:40:48;12.70;99.90
20422;DHT22;10370;53.102;18.034;2023-10-31T04:46:11;12.70;99.90
20422;DHT22;10370;53.102;18.034;2023-10-31T04:51:37;12.70;99.90
20422;DHT22;10370;53.102;18.034;2023-10-31T04:57:03;12.70;99.90
20422;DHT22;10370;53.102;18.034;2023-10-31T05:02:26;12.70;99.90
20422;DHT22;10370;53.102;18.034;2023-10-31T05:08:07;12.70;99.90
20422;DHT22;10370;53.102;18.034;2023-10-31T05:13:40;12.70;99.90
20422;DHT22;10370;53.102;18.034;2023-10-31T05:19:48;12.70;99.90
20422;DHT22;10370;53.102;18.034;2023-10-31T05:25:36;12.80;99.90
20422;DHT22;10370;53.102;18.034;2023-10-31T05:31:31;12.80;99.90
20422;DHT22;10370;53.102;18.034;2023-10-31T05:36:54;12.90;99.90
20422;DHT22;10370;53.102;18.034;2023-10-31T05:42:19;12.80;99.90
20422;DHT22;10370;53.102;18.034;2023-10-31T05:48:00;12.90;99.90
20422;DHT22;10370;53.102;18.034;2023-10-31T05:53:35;12.90;99.90
20422;DHT22;10370;53.102;18.034;2023-10-31T05:59:00;12.90;99.90
20422;DHT22;10370;53.102;18.034;2023-10-31T06:04:52;12.90;99.90
20422;DHT22;10370;53.102;18.034;2023-10-31T06:10:15;12.90;99.90
20422;DHT22;10370;53.102;18.034;2023-10-31T06:15:39;13.00;99.90
20422;DHT22;10370;53.102;18.034;2023-10-31T06:21:02;13.00;99.90
20422;DHT22;10370;53.102;18.034;2023-10-31T06:26:30;13.00;99.90
20422;DHT22;10370;53.102;18.034;2023-10-31T06:38:45;13.10;99.90
20422;DHT22;10370;53.102;18.034;2023-10-31T06:44:08;13.10;99.90
20422;DHT22;10370;53.102;18.034;2023-10-31T06:49:31;13.10;99.90
20422;DHT22;10370;53.102;18.034;2023-10-31T06:55:00;13.10;99.90
20422;DHT22;10370;53.102;18.034;2023-10-31T07:00:24;13.10;99.90
20422;DHT22;10370;53.102;18.034;2023-10-31T07:05:47;13.10;99.90
20422;DHT22;10370;53.102;18.034;2023-10-31T07:11:10;13.20;99.90
20422;DHT22;10370;53.102;18.034;2023-10-31T07:16:33;13.20;99.90
20422;DHT22;10370;53.102;18.034;2023-10-31T07:21:56;13.30;99.90
20422;DHT22;10370;53.102;18.034;2023-10-31T07:27:19;13.30;99.90
20422;DHT22;10370;53.102;18.034;2023-10-31T07:32:42;13.30;99.90
20422;DHT22;10370;53.102;18.034;2023-10-31T07:38:05;13.30;99.90
20422;DHT22;10370;53.102;18.034;2023-10-31T07:43:28;13.40;99.90
20422;DHT22;10370;53.102;18.034;2023-10-31T07:49:21;13.30;99.90
20422;DHT22;10370;53.102;18.034;2023-10-31T07:54:46;13.30;99.90
20422;DHT22;10370;53.102;18.034;2023-10-31T08:00:13;13.20;99.90
20422;DHT22;10370;53.102;18.034;2023-10-31T08:18:40;13.10;99.90
20422;DHT22;10370;53.102;18.034;2023-10-31T08:24:05;13.10;99.90
20422;DHT22;10370;53.102;18.034;2023-10-31T08:29:28;13.10;99.90
20422;DHT22;10370;53.102;18.034;2023-10-31T08:34:55;13.20;99.90
20422;DHT22;10370;53.102;18.034;2023-10-31T08:40:23;13.20;99.90
20422;DHT22;10370;53.102;18.034;2023-10-31T08:46:07;13.20;99.90
20422;DHT22;10370;53.102;18.034;2023-10-31T08:51:56;13.30;99.90
20422;DHT22;10370;53.102;18.034;2023-10-31T08:57:19;13.30;99.90
20422;DHT22;10370;53.102;18.034;2023-10-31T09:02:45;13.40;99.90
20422;DHT22;10370;53.102;18.034;2023-10-31T09:08:09;13.40;99.90
20422;DHT22;10370;53.102;18.034;2023-10-31T09:13:34;13.50;99.90
20422;DHT22;10370;53.102;18.034;2023-10-31T09:18:56;13.60;99.90
20422;DHT22;10370;53.102;18.034;2023-10-31T09:24:19;13.70;99.90
20422;DHT22;10370;53.102;18.034;2023-10-31T09:29:43;13.70;99.90
20422;DHT22;10370;53.102;18.034;2023-10-31T09:35:09;13.80;99.90
20422;DHT22;10370;53.102;18.034;2023-10-31T09:40:39;13.90;99.90
20422;DHT22;10370;53.102;18.034;2023-10-31T09:46:17;13.90;99.90
20422;DHT22;10370;53.102;18.034;2023-10-31T09:51:47;13.80;99.90
20422;DHT22;10370;53.102;18.034;2023-10-31T09:57:56;13.90;99.90
20422;DHT22;10370;53.102;18.034;2023-10-31T10:03:13;13.80;99.90
20422;DHT22;10370;53.102;18.034;2023-10-31T10:08:40;13.80;99.90
20422;DHT22;10370;53.102;18.034;2023-10-31T10:14:05;13.80;99.90
20422;DHT22;10370;53.102;18.034;2023-10-31T10:19:32;13.90;99.90
20422;DHT22;10370;53.102;18.034;2023-10-31T10:25:09;13.90;99.90
20422;DHT22;10370;53.102;18.034;2023-10-31T10:30:35;13.80;99.90
20422;DHT22;10370;53.102;18.034;2023-10-31T10:36:09;13.80;99.90
20422;DHT22;10370;53.102;18.034;2023-10-31T10:41:42;13.70;99.90
20422;DHT22;10370;53.102;18.034;2023-10-31T10:47:06;13.80;99.90
20422;DHT22;10370;53.102;18.034;2023-10-31T10:52:38;13.70;99.90
20422;DHT22;10370;53.102;18.034;2023-10-31T10:58:41;13.70;99.90
20422;DHT22;10370;53.102;18.034;2023-10-31T11:04:22;13.70;99.90
20422;DHT22;10370;53.102;18.034;2023-10-31T11:09:47;13.70;99.90
20422;DHT22;10370;53.102;18.034;2023-10-31T11:15:15;13.70;99.90
20422;DHT22;10370;53.102;18.034;2023-10-31T11:20:50;13.70;99.90
20422;DHT22;10370;53.102;18.034;2023-10-31T11:26:50;13.80;99.90
20422;DHT22;10370;53.102;18.034;2023-10-31T11:32:14;13.80;99.90
20422;DHT22;10370;53.102;18.034;2023-10-31T11:37:37;13.70;99.90
20422;DHT22;10370;53.102;18.034;2023-10-31T11:43:04;13.70;99.90
20422;DHT22;10370;53.102;18.034;2023-10-31T11:48:51;13.70;99.90
20422;DHT22;10370;53.102;18.034;2023-10-31T11:54:22;13.70;99.90
20422;DHT22;10370;53.102;18.034;2023-10-31T11:59:45;13.70;99.90
20422;DHT22;10370;53.102;18.034;2023-10-31T12:05:19;13.60;99.90
20422;DHT22;10370;53.102;18.034;2023-10-31T12:16:48;13.50;99.90
20422;DHT22;10370;53.102;18.034;2023-10-31T12:22:38;13.50;99.90
20422;DHT22;10370;53.102;18.034;2023-10-31T12:28:08;13.60;99.90
20422;DHT22;10370;53.102;18.034;2023-10-31T12:39:51;13.80;99.90
20422;DHT22;10370;53.102;18.034;2023-10-31T12:45:19;13.70;99.90
20422;DHT22;10370;53.102;18.034;2023-10-31T12:51:17;13.60;99.90
20422;DHT22;10370;53.102;18.034;2023-10-31T12:57:14;13.50;99.90
20422;DHT22;10370;53.102;18.034;2023-10-31T13:03:05;13.50;99.90
20422;DHT22;10370;53.102;18.034;2023-10-31T13:08:28;13.50;99.90
20422;DHT22;10370;53.102;18.034;2023-10-31T13:13:52;13.50;99.90
20422;DHT22;10370;53.102;18.034;2023-10-31T13:19:21;13.60;99.90
20422;DHT22;10370;53.102;18.034;2023-10-31T13:24:45;13.60;99.90
20422;DHT22;10370;53.102;18.034;2023-10-31T13:30:11;13.40;99.90
20422;DHT22;10370;53.102;18.034;2023-10-31T13:35:37;13.10;99.90
20422;DHT22;10370;53.102;18.034;2023-10-31T13:41:00;12.90;99.90
20422;DHT22;10370;53.102;18.034;2023-10-31T13:46:23;12.70;99.90
20422;DHT22;10370;53.102;18.034;2023-10-31T13:51:47;12.60;99.90
20422;DHT22;10370;53.102;18.034;2023-10-31T13:57:11;12.50;99.90
20422;DHT22;10370;53.102;18.034;2023-10-31T14:02:34;12.30;99.90
20422;DHT22;10370;53.102;18.034;2023-10-31T14:08:00;12.30;99.90
20422;DHT22;10370;53.102;18.034;2023-10-31T14:13:23;12.20;99.90
20422;DHT22;10370;53.102;18.034;2023-10-31T14:18:46;12.20;99.90
20422;DHT22;10370;53.102;18.034;2023-10-31T14:24:10;12.20;99.90
20422;DHT22;10370;53.102;18.034;2023-10-31T14:29:34;12.20;99.90
20422;DHT22;10370;53.102;18.034;2023-10-31T14:35:00;12.10;99.90
20422;DHT22;10370;53.102;18.034;2023-10-31T14:40:23;12.10;99.90
20422;DHT22;10370;53.102;18.034;2023-10-31T14:45:47;12.10;99.90
20422;DHT22;10370;53.102;18.034;2023-10-31T14:51:09;12.10;99.90
20422;DHT22;10370;53.102;18.034;2023-10-31T14:56:33;12.00;99.90
20422;DHT22;10370;53.102;18.034;2023-10-31T15:01:57;12.00;99.90
20422;DHT22;10370;53.102;18.034;2023-10-31T15:07:20;12.00;99.90
20422;DHT22;10370;53.102;18.034;2023-10-31T15:12:43;11.90;99.90
20422;DHT22;10370;53.102;18.034;2023-10-31T15:18:06;11.80;99.90
20422;DHT22;10370;53.102;18.034;2023-10-31T15:23:29;11.70;99.90
20422;DHT22;10370;53.102;18.034;2023-10-31T15:28:54;11.50;99.90
20422;DHT22;10370;53.102;18.034;2023-10-31T15:34:17;11.40;99.90
20422;DHT22;10370;53.102;18.034;2023-10-31T15:39:42;11.40;99.90
20422;DHT22;10370;53.102;18.034;2023-10-31T15:45:08;11.40;99.90
20422;DHT22;10370;53.102;18.034;2023-10-31T15:50:31;11.50;99.90
20422;DHT22;10370;53.102;18.034;2023-10-31T15:55:55;11.50;99.90
20422;DHT22;10370;53.102;18.034;2023-10-31T16:01:18;11.50;99.90
20422;DHT22;10370;53.102;18.034;2023-10-31T16:06:41;11.50;99.90
20422;DHT22;10370;53.102;18.034;2023-10-31T16:12:04;11.50;99.90
20422;DHT22;10370;53.102;18.034;2023-10-31T16:17:28;11.40;99.90
20422;DHT22;10370;53.102;18.034;2023-10-31T16:22:51;11.50;99.90
20422;DHT22;10370;53.102;18.034;2023-10-31T16:28:14;11.50;99.90
20422;DHT22;10370;53.102;18.034;2023-10-31T16:33:38;11.50;99.90
20422;DHT22;10370;53.102;18.034;2023-10-31T16:39:01;11.50;99.90
20422;DHT22;10370;53.102;18.034;2023-10-31T16:44:24;11.60;99.90
20422;DHT22;10370;53.102;18.034;2023-10-31T16:49:47;11.60;99.90
20422;DHT22;10370;53.102;18.034;2023-10-31T16:55:09;11.80;99.90
20422;DHT22;10370;53.102;18.034;2023-10-31T17:00:32;11.80;99.90
20422;DHT22;10370;53.102;18.034;2023-10-31T17:05:58;11.80;99.90
20422;DHT22;10370;53.102;18.034;2023-10-31T17:11:23;11.80;99.90
20422;DHT22;10370;53.102;18.034;2023-10-31T17:16:49;11.90;99.90
20422;DHT22;10370;53.102;18.034;2023-10-31T17:22:12;11.90;99.90
20422;DHT22;10370;53.102;18.034;2023-10-31T17:27:34;11.90;99.90
20422;DHT22;10370;53.102;18.034;2023-10-31T17:32:57;11.90;99.90
20422;DHT22;10370;53.102;18.034;2023-10-31T17:38:20;11.90;99.90
20422;DHT22;10370;53.102;18.034;2023-10-31T17:43:47;11.80;99.90
20422;DHT22;10370;53.102;18.034;2023-10-31T17:49:12;11.90;99.90
20422;DHT22;10370;53.102;18.034;2023-10-31T17:54:35;11.90;99.90
20422;DHT22;10370;53.102;18.034;2023-10-31T18:00:07;11.90;99.90
20422;DHT22;10370;53.102;18.034;2023-10-31T18:05:31;11.80;99.90
20422;DHT22;10370;53.102;18.034;2023-10-31T18:10:55;11.80;99.90
20422;DHT22;10370;53.102;18.034;2023-10-31T18:16:17;11.80;99.90
20422;DHT22;10370;53.102;18.034;2023-10-31T18:21:42;11.80;99.90
20422;DHT22;10370;53.102;18.034;2023-10-31T18:27:06;11.80;99.90
20422;DHT22;10370;53.102;18.034;2023-10-31T18:32:30;11.80;99.90
20422;DHT22;10370;53.102;18.034;2023-10-31T18:37:53;11.90;99.90
20422;DHT22;10370;53.102;18.034;2023-10-31T18:43:15;11.90;99.90
20422;DHT22;10370;53.102;18.034;2023-10-31T18:48:38;11.90;99.90
20422;DHT22;10370;53.102;18.034;2023-10-31T18:54:02;11.80;99.90
20422;DHT22;10370;53.102;18.034;2023-10-31T18:59:26;11.80;99.90
20422;DHT22;10370;53.102;18.034;2023-10-31T19:04:49;11.70;99.90
20422;DHT22;10370;53.102;18.034;2023-10-31T19:10:15;11.80;99.90
20422;DHT22;10370;53.102;18.034;2023-10-31T19:15:38;11.70;99.90
20422;DHT22;10370;53.102;18.034;2023-10-31T19:21:00;11.60;99.90
20422;DHT22;10370;53.102;18.034;2023-10-31T19:26:24;11.60;99.90
20422;DHT22;10370;53.102;18.034;2023-10-31T19:31:47;11.50;99.90
20422;DHT22;10370;53.102;18.034;2023-10-31T19:37:13;11.50;99.90
20422;DHT22;10370;53.102;18.034;2023-10-31T19:42:36;11.40;99.90
20422;DHT22;10370;53.102;18.034;2023-10-31T19:47:59;11.20;99.90
20422;DHT22;10370;53.102;18.034;2023-10-31T19:53:23;11.10;99.90
20422;DHT22;10370;53.102;18.034;2023-10-31T19:58:47;11.10;99.90
20422;DHT22;10370;53.102;18.034;2023-10-31T20:04:09;11.00;99.90
20422;DHT22;10370;53.102;18.034;2023-10-31T20:09:33;11.00;99.90
20422;DHT22;10370;53.102;18.034;2023-10-31T20:14:59;11.00;99.90
20422;DHT22;10370;53.102;18.034;2023-10-31T20:20:23;11.00;99.90
20422;DHT22;10370;53.102;18.034;2023-10-31T20:25:46;10.90;99.90
20422;DHT22;10370;53.102;18.034;2023-10-31T20:31:09;10.90;99.90
20422;DHT22;10370;53.102;18.034;2023-10-31T20:36:33;10.90;99.90
20422;DHT22;10370;53.102;18.034;2023-10-31T20:41:59;10.90;99.90
20422;DHT22;10370;53.102;18.034;2023-10-31T20:47:23;10.80;99.90
20422;DHT22;10370;53.102;18.034;2023-10-31T20:52:45;10.70;99.90
20422;DHT22;10370;53.102;18.034;2023-10-31T20:58:08;10.70;99.90
20422;DHT22;10370;53.102;18.034;2023-10-31T21:03:34;10.70;99.90
20422;DHT22;10370;53.102;18.034;2023-10-31T21:08:56;10.70;99.90
20422;DHT22;10370;53.102;18.034;2023-10-31T21:14:20;10.60;99.90
20422;DHT22;10370;53.102;18.034;2023-10-31T21:19:42;10.50;99.90
20422;DHT22;10370;53.102;18.034;2023-10-31T21:25:05;10.30;99.90
20422;DHT22;10370;53.102;18.034;2023-10-31T21:30:28;10.30;99.90
20422;DHT22;10370;53.102;18.034;2023-10-31T21:35:51;10.10;99.90
20422;DHT22;10370;53.102;18.034;2023-10-31T21:41:15;10.10;99.90
20422;DHT22;10370;53.102;18.034;2023-10-31T21:46:38;10.00;99.90
20422;DHT22;10370;53.102;18.034;2023-10-31T21:52:01;9.90;99.90
20422;DHT22;10370;53.102;18.034;2023-10-31T21:57:26;9.90;99.90
20422;DHT22;10370;53.102;18.034;2023-10-31T22:02:51;9.90;99.90
20422;DHT22;10370;53.102;18.034;2023-10-31T22:08:14;9.90;99.90
20422;DHT22;10370;53.102;18.034;2023-10-31T22:13:37;9.90;99.90
20422;DHT22;10370;53.102;18.034;2023-10-31T22:19:00;9.90;99.90
20422;DHT22;10370;53.102;18.034;2023-10-31T22:24:26;10.00;99.90
20422;DHT22;10370;53.102;18.034;2023-10-31T22:29:48;10.00;99.90
20422;DHT22;10370;53.102;18.034;2023-10-31T22:35:11;9.90;99.90
20422;DHT22;10370;53.102;18.034;2023-10-31T22:40:34;9.80;99.90
20422;DHT22;10370;53.102;18.034;2023-10-31T22:45:57;9.70;99.90
20422;DHT22;10370;53.102;18.034;2023-10-31T22:51:20;9.70;99.90
20422;DHT22;10370;53.102;18.034;2023-10-31T22:56:43;9.70;99.90
20422;DHT22;10370;53.102;18.034;2023-10-31T23:02:06;9.80;99.90
20422;DHT22;10370;53.102;18.034;2023-10-31T23:07:32;9.90;99.90
20422;DHT22;10370;53.102;18.034;2023-10-31T23:12:54;9.90;99.90
20422;DHT22;10370;53.102;18.034;2023-10-31T23:18:18;9.90;99.90
20422;DHT22;10370;53.102;18.034;2023-10-31T23:23:40;9.90;99.90
20422;DHT22;10370;53.102;18.034;2023-10-31T23:29:03;10.00;99.90
20422;DHT22;10370;53.102;18.034;2023-10-31T23:34:26;10.00;99.90
20422;DHT22;10370;53.102;18.034;2023-10-31T23:39:49;9.90;99.90
20422;DHT22;10370;53.102;18.034;2023-10-31T23:45:12;9.80;99.90
20422;DHT22;10370;53.102;18.034;2023-10-31T23:50:35;9.70;99.90
20422;DHT22;10370;53.102;18.034;2023-10-31T23:55:58;9.70;99.90
